createdAt,value
2018-07-09T00:00:24.654Z,1018.54
2018-07-09T00:01:34.104Z,1018.53
2018-07-09T00:02:43.267Z,1018.54
2018-07-09T00:03:52.161Z,1018.5
2018-07-09T00:05:01.853Z,1018.49
2018-07-09T00:06:11.060Z,1018.5
2018-07-09T00:07:20.245Z,1018.5
2018-07-09T00:08:29.659Z,1018.49
2018-07-09T00:09:39.086Z,1018.55
2018-07-09T00:10:48.779Z,1018.49
2018-07-09T00:11:58.210Z,1018.51
2018-07-09T00:13:07.635Z,1018.52
2018-07-09T00:14:16.831Z,1018.53
2018-07-09T00:15:26.500Z,1018.51
2018-07-09T00:16:36.418Z,1018.53
2018-07-09T00:17:46.095Z,1018.58
2018-07-09T00:18:55.518Z,1018.57
2018-07-09T00:20:05.184Z,1018.57
2018-07-09T00:21:14.357Z,1018.55
2018-07-09T00:22:23.529Z,1018.55
2018-07-09T00:23:32.437Z,1018.54
2018-07-09T00:24:42.115Z,1018.6
2018-07-09T00:25:51.532Z,1018.59
2018-07-09T00:27:00.941Z,1018.6
2018-07-09T00:28:10.103Z,1018.55
2018-07-09T00:29:19.513Z,1018.58
2018-07-09T00:30:28.689Z,1018.56
2018-07-09T00:31:38.370Z,1018.58
2018-07-09T00:32:47.520Z,1018.58
2018-07-09T00:33:57.196Z,1018.59
2018-07-09T00:35:06.639Z,1018.55
2018-07-09T00:36:15.806Z,1018.55
2018-07-09T00:37:25.250Z,1018.54
2018-07-09T00:38:35.173Z,1018.56
2018-07-09T00:39:44.602Z,1018.54
2018-07-09T00:40:54.278Z,1018.54
2018-07-09T00:42:03.424Z,1018.55
2018-07-09T00:43:13.111Z,1018.53
2018-07-09T00:44:22.004Z,1018.56
2018-07-09T00:45:31.169Z,1018.55
2018-07-09T00:46:40.574Z,1018.58
2018-07-09T00:47:49.722Z,1018.6
2018-07-09T00:48:59.149Z,1018.61
2018-07-09T00:50:08.321Z,1018.6
2018-07-09T00:51:17.977Z,1018.62
2018-07-09T00:52:27.660Z,1018.64
2018-07-09T00:53:37.320Z,1018.64
2018-07-09T00:54:45.965Z,1018.63
2018-07-09T00:55:55.651Z,1018.61
2018-07-09T00:57:04.813Z,1018.64
2018-07-09T00:58:14.235Z,1018.65
2018-07-09T00:59:23.414Z,1018.67
2018-07-09T01:00:32.556Z,1018.7
2018-07-09T01:01:41.961Z,1018.73
2018-07-09T01:02:51.122Z,1018.69
2018-07-09T01:04:00.283Z,1018.69
2018-07-09T01:05:09.712Z,1018.7
2018-07-09T01:06:18.867Z,1018.64
2018-07-09T01:07:28.044Z,1018.71
2018-07-09T01:08:37.256Z,1018.68
2018-07-09T01:09:46.678Z,1018.7
2018-07-09T01:10:56.347Z,1018.67
2018-07-09T01:12:06.407Z,1018.64
2018-07-09T01:13:15.572Z,1018.66
2018-07-09T01:14:25.498Z,1018.65
2018-07-09T01:15:34.922Z,1018.64
2018-07-09T01:16:43.814Z,1018.64
2018-07-09T01:17:53.734Z,1018.68
2018-07-09T01:19:03.161Z,1018.65
2018-07-09T01:20:12.595Z,1018.67
2018-07-09T01:21:22.062Z,1018.67
2018-07-09T01:22:31.497Z,1018.68
2018-07-09T01:23:40.936Z,1018.66
2018-07-09T01:24:49.852Z,1018.64
2018-07-09T01:25:59.298Z,1018.69
2018-07-09T01:27:08.703Z,1018.67
2018-07-09T01:28:17.867Z,1018.67
2018-07-09T01:29:27.552Z,1018.67
2018-07-09T01:30:37.238Z,1018.61
2018-07-09T01:31:46.658Z,1018.65
2018-07-09T01:32:56.069Z,1018.66
2018-07-09T01:34:05.464Z,1018.64
2018-07-09T01:35:15.137Z,1018.64
2018-07-09T01:36:24.289Z,1018.67
2018-07-09T01:37:33.684Z,1018.64
2018-07-09T01:38:42.587Z,1018.67
2018-07-09T01:39:51.752Z,1018.68
2018-07-09T01:41:01.835Z,1018.73
2018-07-09T01:42:11.522Z,1018.71
2018-07-09T01:43:20.938Z,1018.7
2018-07-09T01:44:30.105Z,1018.65
2018-07-09T01:45:39.785Z,1018.63
2018-07-09T01:46:49.208Z,1018.6
2018-07-09T01:47:58.086Z,1018.61
2018-07-09T01:49:07.524Z,1018.64
2018-07-09T01:50:16.699Z,1018.63
2018-07-09T01:51:26.126Z,1018.68
2018-07-09T01:52:35.533Z,1018.66
2018-07-09T01:53:44.943Z,1018.63
2018-07-09T01:54:54.355Z,1018.64
2018-07-09T01:56:03.250Z,1018.63
2018-07-09T01:57:12.169Z,1018.62
2018-07-09T01:58:21.833Z,1018.63
2018-07-09T01:59:31.527Z,1018.66
2018-07-09T02:00:41.207Z,1018.64
2018-07-09T02:01:50.634Z,1018.63
2018-07-09T02:03:00.555Z,1018.62
2018-07-09T02:04:10.229Z,1018.65
2018-07-09T02:05:19.397Z,1018.64
2018-07-09T02:06:28.813Z,1018.64
2018-07-09T02:07:37.965Z,1018.62
2018-07-09T02:08:47.638Z,1018.7
2018-07-09T02:09:56.790Z,1018.68
2018-07-09T02:11:05.956Z,1018.7
2018-07-09T02:12:15.616Z,1018.69
2018-07-09T02:13:24.785Z,1018.68
2018-07-09T02:14:33.675Z,1018.68
2018-07-09T02:15:43.367Z,1018.69
2018-07-09T02:16:52.534Z,1018.69
2018-07-09T02:18:01.945Z,1018.71
2018-07-09T02:19:11.094Z,1018.64
2018-07-09T02:20:20.258Z,1018.62
2018-07-09T02:21:29.823Z,1018.63
2018-07-09T02:22:39.746Z,1018.61
2018-07-09T02:23:49.421Z,1018.61
2018-07-09T02:24:58.849Z,1018.58
2018-07-09T02:26:08.260Z,1018.62
2018-07-09T02:27:17.941Z,1018.56
2018-07-09T02:28:27.102Z,1018.51
2018-07-09T02:29:36.778Z,1018.52
2018-07-09T02:30:46.714Z,1018.55
2018-07-09T02:31:56.374Z,1018.55
2018-07-09T02:33:05.542Z,1018.58
2018-07-09T02:34:15.225Z,1018.55
2018-07-09T02:35:24.912Z,1018.53
2018-07-09T02:36:34.585Z,1018.51
2018-07-09T02:37:43.505Z,1018.53
2018-07-09T02:38:53.623Z,1018.54
2018-07-09T02:40:02.770Z,1018.54
2018-07-09T02:41:11.951Z,1018.59
2018-07-09T02:42:21.368Z,1018.6
2018-07-09T02:43:30.796Z,1018.55
2018-07-09T02:44:40.718Z,1018.6
2018-07-09T02:45:50.393Z,1018.65
2018-07-09T02:47:00.084Z,1018.64
2018-07-09T02:48:09.241Z,1018.61
2018-07-09T02:49:18.240Z,1018.65
2018-07-09T02:50:28.210Z,1018.68
2018-07-09T02:51:37.897Z,1018.7
2018-07-09T02:52:47.310Z,1018.69
2018-07-09T02:53:57.013Z,1018.7
2018-07-09T02:55:06.721Z,1018.68
2018-07-09T02:56:15.884Z,1018.68
2018-07-09T02:57:25.578Z,1018.66
2018-07-09T02:58:34.782Z,1018.67
2018-07-09T02:59:44.210Z,1018.69
2018-07-09T03:00:53.943Z,1018.72
2018-07-09T03:02:03.699Z,1018.66
2018-07-09T03:03:12.872Z,1018.68
2018-07-09T03:04:22.563Z,1018.68
2018-07-09T03:05:32.019Z,1018.7
2018-07-09T03:06:41.970Z,1018.73
2018-07-09T03:07:51.892Z,1018.75
2018-07-09T03:09:01.083Z,1018.78
2018-07-09T03:10:10.247Z,1018.76
2018-07-09T03:11:19.939Z,1018.79
2018-07-09T03:12:29.370Z,1018.79
2018-07-09T03:13:38.789Z,1018.79
2018-07-09T03:14:48.473Z,1018.82
2018-07-09T03:15:57.882Z,1018.78
2018-07-09T03:17:07.590Z,1018.79
2018-07-09T03:18:17.261Z,1018.79
2018-07-09T03:19:26.698Z,1018.8
2018-07-09T03:20:35.884Z,1018.81
2018-07-09T03:21:44.788Z,1018.78
2018-07-09T03:22:54.762Z,1018.78
2018-07-09T03:24:03.943Z,1018.77
2018-07-09T03:25:13.375Z,1018.74
2018-07-09T03:26:23.354Z,1018.74
2018-07-09T03:27:33.020Z,1018.76
2018-07-09T03:28:42.750Z,1018.78
2018-07-09T03:29:52.450Z,1018.81
2018-07-09T03:31:01.617Z,1018.86
2018-07-09T03:32:11.037Z,1018.81
2018-07-09T03:33:20.185Z,1018.8
2018-07-09T03:34:29.591Z,1018.78
2018-07-09T03:35:38.995Z,1018.83
2018-07-09T03:36:48.935Z,1018.88
2018-07-09T03:37:57.835Z,1018.86
2018-07-09T03:39:07.250Z,1018.81
2018-07-09T03:40:16.406Z,1018.82
2018-07-09T03:41:26.073Z,1018.79
2018-07-09T03:42:35.479Z,1018.81
2018-07-09T03:43:45.135Z,1018.8
2018-07-09T03:44:54.040Z,1018.78
2018-07-09T03:46:03.750Z,1018.76
2018-07-09T03:47:13.167Z,1018.77
2018-07-09T03:48:22.579Z,1018.77
2018-07-09T03:49:32.011Z,1018.76
2018-07-09T03:50:41.422Z,1018.75
2018-07-09T03:51:50.571Z,1018.78
2018-07-09T03:52:59.990Z,1018.78
2018-07-09T03:54:09.431Z,1018.78
2018-07-09T03:55:18.844Z,1018.85
2018-07-09T03:56:28.000Z,1018.88
2018-07-09T03:57:37.160Z,1018.86
2018-07-09T03:58:46.588Z,1018.86
2018-07-09T03:59:56.247Z,1018.87
2018-07-09T04:01:05.674Z,1018.86
2018-07-09T04:02:15.132Z,1018.88
2018-07-09T04:03:25.456Z,1018.84
2018-07-09T04:04:34.614Z,1018.84
2018-07-09T04:05:44.298Z,1018.84
2018-07-09T04:06:53.976Z,1018.87
2018-07-09T04:08:03.134Z,1018.85
2018-07-09T04:09:12.559Z,1018.88
2018-07-09T04:10:21.990Z,1018.89
2018-07-09T04:11:31.167Z,1018.85
2018-07-09T04:12:40.576Z,1018.87
2018-07-09T04:13:50.506Z,1018.87
2018-07-09T04:14:59.415Z,1018.88
2018-07-09T04:16:08.328Z,1018.87
2018-07-09T04:17:18.259Z,1018.85
2018-07-09T04:18:27.686Z,1018.89
2018-07-09T04:19:37.112Z,1018.87
2018-07-09T04:20:46.269Z,1018.91
2018-07-09T04:21:56.268Z,1018.91
2018-07-09T04:23:05.948Z,1018.94
2018-07-09T04:24:15.380Z,1018.96
2018-07-09T04:25:24.811Z,1018.95
2018-07-09T04:26:34.241Z,1018.94
2018-07-09T04:27:43.910Z,1018.96
2018-07-09T04:28:53.354Z,1018.97
2018-07-09T04:30:02.836Z,1018.97
2018-07-09T04:31:11.775Z,1019
2018-07-09T04:32:20.942Z,1019.01
2018-07-09T04:33:30.096Z,1019.05
2018-07-09T04:34:39.267Z,1019.04
2018-07-09T04:35:48.682Z,1019.02
2018-07-09T04:36:58.110Z,1019.04
2018-07-09T04:38:07.550Z,1019.06
2018-07-09T04:39:16.707Z,1019.11
2018-07-09T04:40:26.676Z,1019.12
2018-07-09T04:41:36.105Z,1019.1
2018-07-09T04:42:45.573Z,1019.12
2018-07-09T04:43:54.725Z,1019.13
2018-07-09T04:45:03.932Z,1019.11
2018-07-09T04:46:13.352Z,1019.09
2018-07-09T04:47:22.772Z,1019.14
2018-07-09T04:48:32.198Z,1019.1
2018-07-09T04:49:41.870Z,1019.13
2018-07-09T04:50:50.763Z,1019.11
2018-07-09T04:52:00.190Z,1019.12
2018-07-09T04:53:09.628Z,1019.17
2018-07-09T04:54:19.306Z,1019.14
2018-07-09T04:55:28.213Z,1019.14
2018-07-09T04:56:37.902Z,1019.15
2018-07-09T04:57:47.058Z,1019.15
2018-07-09T04:58:56.489Z,1019.16
2018-07-09T05:00:05.662Z,1019.12
2018-07-09T05:01:15.357Z,1019.19
2018-07-09T05:02:25.029Z,1019.17
2018-07-09T05:03:34.191Z,1019.13
2018-07-09T05:04:43.880Z,1019.16
2018-07-09T05:05:53.317Z,1019.15
2018-07-09T05:07:03.001Z,1019.12
2018-07-09T05:08:12.679Z,1019.12
2018-07-09T05:09:22.159Z,1019.12
2018-07-09T05:10:31.418Z,1019.1
2018-07-09T05:11:40.679Z,1019.12
2018-07-09T05:12:49.594Z,1019.14
2018-07-09T05:13:59.444Z,1019.17
2018-07-09T05:15:08.348Z,1019.14
2018-07-09T05:16:17.554Z,1019.19
2018-07-09T05:17:26.450Z,1019.16
2018-07-09T05:18:35.620Z,1019.18
2018-07-09T05:19:44.787Z,1019.17
2018-07-09T05:20:53.695Z,1019.19
2018-07-09T05:22:02.877Z,1019.15
2018-07-09T05:23:12.286Z,1019.17
2018-07-09T05:24:21.726Z,1019.23
2018-07-09T05:25:31.135Z,1019.27
2018-07-09T05:26:40.824Z,1019.33
2018-07-09T05:27:50.526Z,1019.32
2018-07-09T05:28:59.429Z,1019.31
2018-07-09T05:30:08.330Z,1019.28
2018-07-09T05:31:17.748Z,1019.3
2018-07-09T05:32:27.419Z,1019.3
2018-07-09T05:33:36.335Z,1019.37
2018-07-09T05:34:45.495Z,1019.27
2018-07-09T05:35:55.436Z,1019.27
2018-07-09T05:37:04.876Z,1019.27
2018-07-09T05:38:14.300Z,1019.29
2018-07-09T05:39:23.720Z,1019.29
2018-07-09T05:40:33.658Z,1019.32
2018-07-09T05:41:43.329Z,1019.31
2018-07-09T05:42:52.734Z,1019.38
2018-07-09T05:44:02.143Z,1019.37
2018-07-09T05:45:12.066Z,1019.36
2018-07-09T05:46:21.726Z,1019.34
2018-07-09T05:47:30.633Z,1019.35
2018-07-09T05:48:40.051Z,1019.34
2018-07-09T05:49:49.717Z,1019.35
2018-07-09T05:50:59.390Z,1019.37
2018-07-09T05:52:08.813Z,1019.35
2018-07-09T05:53:18.274Z,1019.35
2018-07-09T05:54:28.601Z,1019.34
2018-07-09T05:55:38.042Z,1019.34
2018-07-09T05:56:47.979Z,1019.28
2018-07-09T05:57:57.147Z,1019.32
2018-07-09T05:59:06.556Z,1019.28
2018-07-09T06:00:15.734Z,1019.26
2018-07-09T06:01:25.151Z,1019.23
2018-07-09T06:02:34.604Z,1019.22
2018-07-09T06:03:44.270Z,1019.2
2018-07-09T06:04:53.690Z,1019.16
2018-07-09T06:06:03.112Z,1019.17
2018-07-09T06:07:12.528Z,1019.11
2018-07-09T06:08:22.192Z,1019.09
2018-07-09T06:09:31.874Z,1019.09
2018-07-09T06:10:41.551Z,1019.15
2018-07-09T06:11:50.976Z,1019.13
2018-07-09T06:13:00.659Z,1019.12
2018-07-09T06:14:09.585Z,1019.13
2018-07-09T06:15:18.730Z,1019.12
2018-07-09T06:16:28.413Z,1019.1
2018-07-09T06:17:37.861Z,1019.13
2018-07-09T06:18:47.045Z,1019.13
2018-07-09T06:19:56.483Z,1019.11
2018-07-09T06:21:05.656Z,1019.14
2018-07-09T06:22:14.846Z,1019.09
2018-07-09T06:23:24.515Z,1019.13
2018-07-09T06:24:34.188Z,1019.14
2018-07-09T06:25:43.601Z,1019.16
2018-07-09T06:26:53.293Z,1019.15
2018-07-09T06:28:02.733Z,1019.16
2018-07-09T06:29:12.161Z,1019.15
2018-07-09T06:30:21.324Z,1019.17
2018-07-09T06:31:30.543Z,1019.18
2018-07-09T06:32:40.556Z,1019.22
2018-07-09T06:33:50.030Z,1019.18
2018-07-09T06:34:59.189Z,1019.2
2018-07-09T06:36:09.141Z,1019.2
2018-07-09T06:37:19.097Z,1019.2
2018-07-09T06:38:28.509Z,1019.2
2018-07-09T06:39:38.192Z,1019.16
2018-07-09T06:40:47.865Z,1019.17
2018-07-09T06:41:57.291Z,1019.15
2018-07-09T06:43:07.256Z,1019.14
2018-07-09T06:44:16.419Z,1019.17
2018-07-09T06:45:25.321Z,1019.18
2018-07-09T06:46:35.007Z,1019.18
2018-07-09T06:47:44.430Z,1019.16
2018-07-09T06:48:53.583Z,1019.2
2018-07-09T06:50:03.045Z,1019.19
2018-07-09T06:51:12.177Z,1019.21
2018-07-09T06:52:21.590Z,1019.22
2018-07-09T06:53:30.764Z,1019.19
2018-07-09T06:54:40.453Z,1019.21
2018-07-09T06:55:49.904Z,1019.22
2018-07-09T06:56:59.594Z,1019.2
2018-07-09T06:58:08.757Z,1019.24
2018-07-09T06:59:18.487Z,1019.27
2018-07-09T07:00:27.653Z,1019.26
2018-07-09T07:01:36.839Z,1019.26
2018-07-09T07:02:45.997Z,1019.22
2018-07-09T07:03:55.986Z,1019.27
2018-07-09T07:05:05.923Z,1019.19
2018-07-09T07:06:15.081Z,1019.19
2018-07-09T07:07:24.499Z,1019.22
2018-07-09T07:08:33.904Z,1019.22
2018-07-09T07:09:43.516Z,1019.21
2018-07-09T07:10:52.927Z,1019.24
2018-07-09T07:12:02.855Z,1019.23
2018-07-09T07:13:12.552Z,1019.18
2018-07-09T07:14:22.020Z,1019.21
2018-07-09T07:15:32.040Z,1019.17
2018-07-09T07:16:41.457Z,1019.21
2018-07-09T07:17:50.351Z,1019.21
2018-07-09T07:18:59.753Z,1019.19
2018-07-09T07:20:08.653Z,1019.2
2018-07-09T07:21:18.349Z,1019.24
2018-07-09T07:22:28.310Z,1019.22
2018-07-09T07:23:38.273Z,1019.19
2018-07-09T07:24:46.926Z,1019.19
2018-07-09T07:25:56.609Z,1019.19
2018-07-09T07:27:05.791Z,1019.23
2018-07-09T07:28:15.452Z,1019.23
2018-07-09T07:29:24.364Z,1019.23
2018-07-09T07:30:34.063Z,1019.24
2018-07-09T07:31:43.752Z,1019.23
2018-07-09T07:32:53.696Z,1019.3
2018-07-09T07:34:03.121Z,1019.26
2018-07-09T07:35:12.029Z,1019.3
2018-07-09T07:36:20.936Z,1019.3
2018-07-09T07:37:30.866Z,1019.35
2018-07-09T07:38:40.548Z,1019.36
2018-07-09T07:39:50.240Z,1019.36
2018-07-09T07:41:00.183Z,1019.35
2018-07-09T07:42:09.342Z,1019.31
2018-07-09T07:43:19.037Z,1019.27
2018-07-09T07:44:28.724Z,1019.27
2018-07-09T07:45:38.396Z,1019.32
2018-07-09T07:46:47.568Z,1019.25
2018-07-09T07:47:56.987Z,1019.26
2018-07-09T07:49:06.918Z,1019.25
2018-07-09T07:50:16.452Z,1019.2
2018-07-09T07:51:25.889Z,1019.24
2018-07-09T07:52:35.842Z,1019.13
2018-07-09T07:53:44.736Z,1019.2
2018-07-09T07:54:54.156Z,1019.25
2018-07-09T07:56:03.835Z,1019.24
2018-07-09T07:57:12.723Z,1019.25
2018-07-09T07:58:22.161Z,1019.23
2018-07-09T07:59:31.329Z,1019.19
2018-07-09T08:00:40.756Z,1019.12
2018-07-09T08:01:50.273Z,1019.11
2018-07-09T08:02:59.995Z,1019.14
2018-07-09T08:04:09.533Z,1019.22
2018-07-09T08:05:19.454Z,1019.17
2018-07-09T08:06:29.136Z,1019.14
2018-07-09T08:07:38.288Z,1019.19
2018-07-09T08:08:47.449Z,1019.17
2018-07-09T08:09:56.877Z,1019.18
2018-07-09T08:11:11.072Z,1019.3
2018-07-09T08:14:33.601Z,1019.17
2018-07-09T08:15:42.833Z,1019.2
2018-07-09T08:16:52.516Z,1019.16
2018-07-09T08:18:01.948Z,1019.21
2018-07-09T08:19:11.366Z,1019.22
2018-07-09T08:20:21.105Z,1019.17
2018-07-09T08:21:30.253Z,1019.2
2018-07-09T08:22:39.419Z,1019.16
2018-07-09T08:23:48.858Z,1019.11
2018-07-09T08:24:58.410Z,1019.1
2018-07-09T08:26:08.412Z,1019.15
2018-07-09T08:27:17.592Z,1019.17
2018-07-09T08:28:27.052Z,1019.12
2018-07-09T08:29:36.469Z,1019.11
2018-07-09T08:30:45.894Z,1019.08
2018-07-09T08:31:55.361Z,1019.14
2018-07-09T08:33:05.038Z,1019.13
2018-07-09T08:34:14.193Z,1019.07
2018-07-09T08:35:23.901Z,1019.08
2018-07-09T08:36:33.569Z,1019.05
2018-07-09T08:37:42.995Z,1019
2018-07-09T08:38:53.022Z,1018.91
2018-07-09T08:40:02.961Z,1018.94
2018-07-09T08:41:12.135Z,1019.02
2018-07-09T08:42:20.806Z,1019.02
2018-07-09T08:43:30.505Z,1019.01
2018-07-09T08:44:39.933Z,1019
2018-07-09T08:45:48.860Z,1018.97
2018-07-09T08:46:58.021Z,1019.01
2018-07-09T08:48:07.187Z,1018.97
2018-07-09T08:49:16.105Z,1018.97
2018-07-09T08:50:25.798Z,1018.97
2018-07-09T08:51:35.469Z,1018.92
2018-07-09T08:52:44.883Z,1018.93
2018-07-09T08:53:53.781Z,1018.91
2018-07-09T08:55:03.712Z,1018.94
2018-07-09T08:56:13.137Z,1018.95
2018-07-09T08:57:22.560Z,1018.99
2018-07-09T08:58:32.002Z,1018.98
2018-07-09T08:59:41.166Z,1018.97
2018-07-09T09:00:50.595Z,1018.91
2018-07-09T09:02:00.256Z,1018.89
2018-07-09T09:03:09.416Z,1018.92
2018-07-09T09:04:18.873Z,1018.95
2018-07-09T09:05:28.537Z,1018.94
2018-07-09T09:06:38.006Z,1018.85
2018-07-09T09:07:47.420Z,1018.82
2018-07-09T09:08:57.106Z,1018.88
2018-07-09T09:10:07.063Z,1018.83
2018-07-09T09:11:16.691Z,1018.79
2018-07-09T09:12:26.376Z,1018.82
2018-07-09T09:13:35.814Z,1018.84
2018-07-09T09:14:45.668Z,1018.83
2018-07-09T09:15:55.347Z,1018.87
2018-07-09T09:17:04.773Z,1018.93
2018-07-09T09:18:13.934Z,1018.96
2018-07-09T09:19:23.108Z,1018.89
2018-07-09T09:20:32.820Z,1018.8
2018-07-09T09:21:42.489Z,1018.83
2018-07-09T09:22:51.673Z,1018.83
2018-07-09T09:24:01.474Z,1018.78
2018-07-09T09:25:10.900Z,1018.86
2018-07-09T09:26:19.819Z,1018.87
2018-07-09T09:27:29.753Z,1018.86
2018-07-09T09:28:39.674Z,1018.89
2018-07-09T09:29:48.830Z,1018.92
2018-07-09T09:30:57.999Z,1018.81
2018-07-09T09:32:07.513Z,1018.82
2018-07-09T09:33:16.691Z,1018.77
2018-07-09T09:34:26.367Z,1018.8
2018-07-09T09:35:35.522Z,1018.75
2018-07-09T09:36:44.943Z,1018.75
2018-07-09T09:37:54.375Z,1018.76
2018-07-09T09:39:03.525Z,1018.77
2018-07-09T09:40:13.193Z,1018.76
2018-07-09T09:41:22.105Z,1018.74
2018-07-09T09:42:31.783Z,1018.65
2018-07-09T09:43:41.457Z,1018.72
2018-07-09T09:44:51.136Z,1018.7
2018-07-09T09:46:00.295Z,1018.72
2018-07-09T09:47:10.022Z,1018.69
2018-07-09T09:48:19.777Z,1018.66
2018-07-09T09:49:28.803Z,1018.65
2018-07-09T09:50:38.126Z,1018.58
2018-07-09T09:51:47.801Z,1018.58
2018-07-09T09:52:57.233Z,1018.53
2018-07-09T09:54:06.640Z,1018.48
2018-07-09T09:55:15.807Z,1018.41
2018-07-09T09:56:25.494Z,1018.38
2018-07-09T09:57:35.184Z,1018.41
2018-07-09T09:58:44.338Z,1018.42
2018-07-09T09:59:54.027Z,1018.5
2018-07-09T10:01:03.190Z,1018.46
2018-07-09T10:02:12.637Z,1018.49
2018-07-09T10:03:22.042Z,1018.42
2018-07-09T10:04:31.236Z,1018.35
2018-07-09T10:05:40.632Z,1018.32
2018-07-09T10:06:50.324Z,1018.38
2018-07-09T10:08:00.280Z,1018.38
2018-07-09T10:09:09.695Z,1018.35
2018-07-09T10:10:18.605Z,1018.38
2018-07-09T10:11:27.534Z,1018.36
2018-07-09T10:12:37.231Z,1018.35
2018-07-09T10:13:46.393Z,1018.34
2018-07-09T10:14:56.080Z,1018.35
2018-07-09T10:16:05.747Z,1018.27
2018-07-09T10:17:15.190Z,1018.33
2018-07-09T10:18:24.875Z,1018.3
2018-07-09T10:19:34.555Z,1018.27
2018-07-09T10:20:43.973Z,1018.28
2018-07-09T10:21:53.829Z,1018.31
2018-07-09T10:23:03.418Z,1018.26
2018-07-09T10:24:14.229Z,1018.23
2018-07-09T10:25:23.906Z,1018.23
2018-07-09T10:26:33.060Z,1018.27
2018-07-09T10:27:42.217Z,1018.31
2018-07-09T10:28:53.589Z,1018.4
2018-07-09T10:30:03.005Z,1018.35
2018-07-09T10:31:12.682Z,1018.32
2018-07-09T10:32:22.093Z,1018.36
2018-07-09T10:33:31.681Z,1018.32
2018-07-09T10:34:41.369Z,1018.29
2018-07-09T10:35:51.048Z,1018.36
2018-07-09T10:37:00.469Z,1018.31
2018-07-09T10:38:10.184Z,1018.36
2018-07-09T10:39:19.613Z,1018.31
2018-07-09T10:40:29.201Z,1018.4
2018-07-09T10:41:38.621Z,1018.32
2018-07-09T10:42:48.290Z,1018.35
2018-07-09T10:43:57.463Z,1018.38
2018-07-09T10:45:06.621Z,1018.34
2018-07-09T10:46:16.059Z,1018.3
2018-07-09T10:47:25.235Z,1018.35
2018-07-09T10:48:34.146Z,1018.32
2018-07-09T10:49:43.806Z,1018.25
2018-07-09T10:50:53.219Z,1018.32
2018-07-09T10:52:03.162Z,1018.26
2018-07-09T10:53:13.095Z,1018.31
2018-07-09T10:54:22.766Z,1018.23
2018-07-09T10:55:32.429Z,1018.2
2018-07-09T10:56:41.592Z,1018.23
2018-07-09T10:57:51.252Z,1018.24
2018-07-09T10:59:00.670Z,1018.15
2018-07-09T11:00:09.842Z,1018.19
2018-07-09T11:01:19.284Z,1018.2
2018-07-09T11:02:28.978Z,1018.23
2018-07-09T11:03:38.679Z,1018.18
2018-07-09T11:04:47.577Z,1018.12
2018-07-09T11:05:57.505Z,1018.12
2018-07-09T11:07:06.955Z,1018.18
2018-07-09T11:08:16.100Z,1018.18
2018-07-09T11:09:26.018Z,1018.15
2018-07-09T11:10:35.479Z,1018.17
2018-07-09T11:11:45.150Z,1018.18
2018-07-09T11:12:54.818Z,1018.18
2018-07-09T11:14:03.716Z,1018.19
2018-07-09T11:15:13.145Z,1018.18
2018-07-09T11:16:22.364Z,1018.1
2018-07-09T11:17:32.137Z,1018
2018-07-09T11:18:41.830Z,1017.94
2018-07-09T11:19:51.497Z,1017.98
2018-07-09T11:21:01.177Z,1017.99
2018-07-09T11:22:10.350Z,1018.02
2018-07-09T11:23:19.512Z,1018
2018-07-09T11:24:28.667Z,1017.97
2018-07-09T11:25:37.825Z,1017.88
2018-07-09T11:26:47.828Z,1017.95
2018-07-09T11:27:57.266Z,1017.92
2018-07-09T11:29:06.445Z,1017.95
2018-07-09T11:30:16.556Z,1017.95
2018-07-09T11:31:25.988Z,1017.92
2018-07-09T11:32:35.696Z,1017.9
2018-07-09T11:33:44.858Z,1017.92
2018-07-09T11:34:54.289Z,1017.97
2018-07-09T11:36:03.742Z,1017.89
2018-07-09T11:37:13.397Z,1017.89
2018-07-09T11:38:22.547Z,1017.85
2018-07-09T11:39:31.724Z,1017.89
2018-07-09T11:40:40.626Z,1017.92
2018-07-09T11:41:49.786Z,1017.95
2018-07-09T11:42:59.715Z,1017.94
2018-07-09T11:44:08.903Z,1018.05
2018-07-09T11:45:17.799Z,1017.95
2018-07-09T11:46:27.492Z,1017.99
2018-07-09T11:47:36.896Z,1017.96
2018-07-09T11:48:46.309Z,1017.95
2018-07-09T11:49:55.978Z,1017.94
2018-07-09T11:51:05.402Z,1017.92
2018-07-09T11:52:14.573Z,1017.89
2018-07-09T11:53:23.808Z,1017.92
2018-07-09T11:54:33.216Z,1017.89
2018-07-09T11:55:42.380Z,1017.87
2018-07-09T11:56:51.573Z,1017.87
2018-07-09T11:58:00.471Z,1017.87
2018-07-09T11:59:09.685Z,1017.84
2018-07-09T12:00:18.857Z,1017.83
2018-07-09T12:01:28.784Z,1017.82
2018-07-09T12:02:38.231Z,1017.8
2018-07-09T12:03:47.650Z,1017.85
2018-07-09T12:04:56.561Z,1017.8
2018-07-09T12:06:05.731Z,1017.78
2018-07-09T12:07:14.882Z,1017.77
2018-07-09T12:08:24.568Z,1017.73
2018-07-09T12:09:33.720Z,1017.7
2018-07-09T12:10:42.877Z,1017.81
2018-07-09T12:11:52.313Z,1017.75
2018-07-09T12:13:01.733Z,1017.76
2018-07-09T12:14:10.656Z,1017.71
2018-07-09T12:15:20.087Z,1017.69
2018-07-09T12:16:30.051Z,1017.72
2018-07-09T12:17:39.468Z,1017.79
2018-07-09T12:18:48.627Z,1017.72
2018-07-09T12:19:58.305Z,1017.77
2018-07-09T12:21:07.996Z,1017.69
2018-07-09T12:22:17.781Z,1017.63
2018-07-09T12:23:26.926Z,1017.72
2018-07-09T12:24:36.098Z,1017.66
2018-07-09T12:25:45.508Z,1017.67
2018-07-09T12:26:54.494Z,1017.64
2018-07-09T12:28:04.230Z,1017.65
2018-07-09T12:29:13.322Z,1017.61
2018-07-09T12:30:23.201Z,1017.73
2018-07-09T12:31:32.870Z,1017.74
2018-07-09T12:32:41.773Z,1017.7
2018-07-09T12:33:51.468Z,1017.73
2018-07-09T12:35:00.895Z,1017.69
2018-07-09T12:36:10.078Z,1017.71
2018-07-09T12:37:20.395Z,1017.72
2018-07-09T12:38:29.835Z,1017.75
2018-07-09T12:39:38.731Z,1017.76
2018-07-09T12:40:48.399Z,1017.78
2018-07-09T12:41:57.578Z,1017.79
2018-07-09T12:43:06.778Z,1017.7
2018-07-09T12:44:16.196Z,1017.73
2018-07-09T12:45:25.633Z,1017.77
2018-07-09T12:46:35.317Z,1017.73
2018-07-09T12:47:44.725Z,1017.67
2018-07-09T12:48:54.147Z,1017.71
2018-07-09T12:50:03.571Z,1017.67
2018-07-09T12:51:13.495Z,1017.69
2018-07-09T12:52:23.184Z,1017.7
2018-07-09T12:53:32.398Z,1017.71
2018-07-09T12:54:41.812Z,1017.69
2018-07-09T12:55:51.250Z,1017.72
2018-07-09T12:57:01.217Z,1017.74
2018-07-09T12:58:10.637Z,1017.7
2018-07-09T12:59:19.782Z,1017.68
2018-07-09T13:00:28.952Z,1017.65
2018-07-09T13:01:38.655Z,1017.67
2018-07-09T13:02:48.281Z,1017.62
2018-07-09T13:03:57.691Z,1017.66
2018-07-09T13:05:06.354Z,1017.63
2018-07-09T13:06:15.255Z,1017.62
2018-07-09T13:07:25.197Z,1017.58
2018-07-09T13:08:34.623Z,1017.57
2018-07-09T13:09:44.042Z,1017.55
2018-07-09T13:10:53.198Z,1017.61
2018-07-09T13:12:02.875Z,1017.56
2018-07-09T13:13:12.291Z,1017.57
2018-07-09T13:14:21.759Z,1017.53
2018-07-09T13:15:31.621Z,1017.51
2018-07-09T13:16:40.771Z,1017.5
2018-07-09T13:17:49.946Z,1017.52
2018-07-09T13:18:59.381Z,1017.53
2018-07-09T13:20:08.016Z,1017.53
2018-07-09T13:21:17.180Z,1017.56
2018-07-09T13:22:26.374Z,1017.5
2018-07-09T13:23:35.784Z,1017.52
2018-07-09T13:24:44.940Z,1017.52
2018-07-09T13:25:54.608Z,1017.48
2018-07-09T13:27:03.767Z,1017.46
2018-07-09T13:28:13.441Z,1017.46
2018-07-09T13:29:22.852Z,1017.49
2018-07-09T13:30:32.056Z,1017.42
2018-07-09T13:31:41.218Z,1017.39
2018-07-09T13:32:50.629Z,1017.43
2018-07-09T13:34:00.078Z,1017.39
2018-07-09T13:35:09.244Z,1017.43
2018-07-09T13:36:19.190Z,1017.36
2018-07-09T13:37:28.089Z,1017.4
2018-07-09T13:38:37.527Z,1017.42
2018-07-09T13:39:46.691Z,1017.39
2018-07-09T13:40:56.105Z,1017.41
2018-07-09T13:42:05.273Z,1017.33
2018-07-09T13:43:14.470Z,1017.36
2018-07-09T13:44:24.693Z,1017.34
2018-07-09T13:45:34.125Z,1017.29
2018-07-09T13:46:43.527Z,1017.25
2018-07-09T13:47:52.952Z,1017.24
2018-07-09T13:49:02.442Z,1017.2
2018-07-09T13:50:12.709Z,1017.24
2018-07-09T13:51:22.148Z,1017.24
2018-07-09T13:52:31.837Z,1017.2
2018-07-09T13:53:41.285Z,1017.2
2018-07-09T13:54:50.728Z,1017.16
2018-07-09T13:55:59.894Z,1017.23
2018-07-09T13:57:09.056Z,1017.12
2018-07-09T13:58:18.739Z,1017.15
2018-07-09T13:59:28.403Z,1017.06
2018-07-09T14:00:37.815Z,1017.07
2018-07-09T14:01:47.758Z,1017.13
2018-07-09T14:02:56.914Z,1017.06
2018-07-09T14:04:06.669Z,1017.07
2018-07-09T14:05:16.271Z,1017.06